createdAt,value
2019-01-14T00:04:57.196Z,97875.10
2019-01-14T00:10:07.991Z,97876.48
2019-01-14T00:15:12.569Z,97885.41
2019-01-14T00:20:16.374Z,97890.19
2019-01-14T00:25:19.829Z,97909.59
2019-01-14T00:30:23.290Z,97935.78
2019-01-14T00:35:26.750Z,97950.87
2019-01-14T00:40:30.214Z,97972.41
2019-01-14T00:45:33.672Z,97976.42
2019-01-14T00:50:37.133Z,97991.66
2019-01-14T00:55:40.597Z,97998.59
2019-01-14T01:00:44.058Z,98002.59
2019-01-14T01:05:47.596Z,98008.13
2019-01-14T01:10:51.128Z,98018.45
2019-01-14T01:15:54.753Z,98035.69
2019-01-14T01:20:58.213Z,98059.23
2019-01-14T01:26:01.679Z,98061.23
2019-01-14T01:31:05.135Z,98070.93
2019-01-14T01:36:08.610Z,98091.55
2019-01-14T01:41:12.071Z,98096.94
2019-01-14T01:46:15.529Z,98108.02
2019-01-14T01:51:18.985Z,98116.33
2019-01-14T01:56:22.455Z,98119.72
2019-01-14T02:01:25.913Z,98136.95
2019-01-14T02:06:29.383Z,98144.53
2019-01-14T02:11:32.840Z,98153.45
2019-01-14T02:16:36.580Z,98172.84
2019-01-14T02:21:40.044Z,98179.00
2019-01-14T02:26:43.512Z,98185.78
2019-01-14T02:31:46.980Z,98197.47
2019-01-14T02:36:50.442Z,98205.78
2019-01-14T02:41:53.895Z,98210.55
2019-01-14T02:46:57.372Z,98231.33
2019-01-14T02:52:00.837Z,98241.80
2019-01-14T02:57:04.473Z,98238.10
2019-01-14T03:02:07.929Z,98253.80
2019-01-14T03:07:11.397Z,98269.65
2019-01-14T03:12:14.859Z,98266.88
2019-01-14T03:17:18.317Z,98286.88
2019-01-14T03:22:21.776Z,98292.42
2019-01-14T03:27:25.249Z,98304.89
2019-01-14T03:32:28.702Z,98326.92
2019-01-14T03:37:32.170Z,98339.39
2019-01-14T03:42:35.637Z,98355.39
2019-01-14T03:47:39.101Z,98382.17
2019-01-14T03:52:42.566Z,98398.78
2019-01-14T03:57:46.045Z,98417.41
2019-01-14T04:02:49.500Z,98433.25
2019-01-14T04:07:52.968Z,98445.41
2019-01-14T04:12:56.429Z,98481.58
2019-01-14T04:17:59.896Z,98496.04
2019-01-14T04:23:03.353Z,98513.27
2019-01-14T04:28:06.809Z,98539.59
2019-01-14T04:33:10.269Z,98541.58
2019-01-14T04:38:13.735Z,98552.66
2019-01-14T04:43:17.265Z,98569.89
2019-01-14T04:48:20.732Z,98580.98
2019-01-14T04:53:24.194Z,98598.82
2019-01-14T04:58:27.662Z,98611.90
2019-01-14T05:03:31.121Z,98620.20
2019-01-14T05:08:34.588Z,98634.53
2019-01-14T05:13:38.049Z,98648.06
2019-01-14T05:18:41.516Z,98652.05
2019-01-14T05:23:44.973Z,98672.22
2019-01-14T05:28:48.445Z,98669.89
2019-01-14T05:33:51.906Z,98676.82
2019-01-14T05:38:55.372Z,98678.66
2019-01-14T05:43:58.834Z,98684.83
2019-01-14T05:49:02.297Z,98677.91
2019-01-14T05:54:05.827Z,98688.22
2019-01-14T05:59:09.285Z,98692.37
2019-01-14T06:04:12.746Z,98688.66
2019-01-14T06:09:16.205Z,98694.81
2019-01-14T06:14:19.666Z,98692.66
2019-01-14T06:19:23.142Z,98704.34
2019-01-14T06:24:26.638Z,98707.72
2019-01-14T06:29:30.095Z,98708.17
2019-01-14T06:34:33.577Z,98715.70
2019-01-14T06:39:37.035Z,98713.71
2019-01-14T06:44:40.517Z,98712.16
2019-01-14T06:49:44.000Z,98726.48
2019-01-14T06:54:47.482Z,98729.35
2019-01-14T06:59:50.961Z,98747.09
2019-01-14T07:04:54.442Z,98748.47
2019-01-14T07:09:57.919Z,98753.84
2019-01-14T07:15:01.400Z,98778.45
2019-01-14T07:20:10.847Z,98796.45
2019-01-14T07:25:14.558Z,98813.67
2019-01-14T07:30:20.640Z,98839.98
2019-01-14T07:35:24.121Z,98840.14
2019-01-14T07:40:27.598Z,98853.22
2019-01-14T07:45:31.077Z,98856.43
2019-01-14T07:50:34.699Z,98844.61
2019-01-14T07:55:38.174Z,98873.59
2019-01-14T08:00:41.650Z,98876.28
2019-01-14T08:05:45.125Z,98883.84
2019-01-14T08:10:48.605Z,98892.38
2019-01-14T08:15:52.087Z,98923.63
2019-01-14T08:20:55.572Z,98897.79
2019-01-14T08:25:59.047Z,98898.81
2019-01-14T08:31:02.526Z,98907.05
2019-01-14T08:36:06.005Z,98905.10
2019-01-14T08:41:10.094Z,98915.00
2019-01-14T08:46:13.570Z,98909.36
2019-01-14T08:51:17.058Z,98925.39
2019-01-14T08:56:20.540Z,98937.89
2019-01-14T09:01:24.018Z,98942.28
2019-01-14T09:06:27.493Z,98943.83
2019-01-14T09:11:30.971Z,98948.66
2019-01-14T09:16:34.446Z,98953.28
2019-01-14T09:21:37.926Z,98967.30
2019-01-14T09:26:41.574Z,98977.94
2019-01-14T09:31:45.054Z,98992.28
2019-01-14T09:36:48.529Z,98975.38
2019-01-14T09:41:52.005Z,98994.31
2019-01-14T09:46:55.484Z,98991.27
2019-01-14T09:51:58.957Z,98987.91
2019-01-14T09:57:02.442Z,98997.13
2019-01-14T10:02:05.916Z,98991.14
2019-01-14T10:07:09.394Z,98989.16
2019-01-14T10:12:12.872Z,98982.40
2019-01-14T10:17:17.985Z,98998.14
2019-01-14T10:22:21.499Z,98985.06
2019-01-14T10:27:25.014Z,98983.82
2019-01-14T10:32:28.489Z,98978.58
2019-01-14T10:37:31.971Z,98984.94
2019-01-14T10:42:35.439Z,98978.17
2019-01-14T10:47:38.913Z,98987.43
2019-01-14T10:52:42.557Z,98998.06
2019-01-14T10:57:46.870Z,98991.59
2019-01-14T11:02:50.350Z,98986.05
2019-01-14T11:07:53.962Z,98987.27
2019-01-14T11:12:57.511Z,98997.23
2019-01-14T11:18:01.007Z,98994.97
2019-01-14T11:23:04.754Z,98998.67
2019-01-14T11:28:08.297Z,99007.91
2019-01-14T11:33:11.779Z,99012.23
2019-01-14T11:38:39.074Z,99007.80
2019-01-14T11:43:42.545Z,99013.34
2019-01-14T11:48:46.025Z,99014.12
2019-01-14T11:53:49.504Z,99017.49
2019-01-14T11:58:52.979Z,99023.98
2019-01-14T12:03:56.454Z,99016.45
2019-01-14T12:08:59.942Z,99031.08
2019-01-14T12:14:03.590Z,99023.23
2019-01-14T12:19:07.148Z,99035.88
2019-01-14T12:24:10.629Z,99047.73
2019-01-14T12:29:14.104Z,99063.14
2019-01-14T12:34:17.586Z,99047.90
2019-01-14T12:39:21.069Z,99050.67
2019-01-14T12:44:24.541Z,99049.28
2019-01-14T12:49:28.021Z,99098.71
2019-01-14T12:54:31.501Z,99154.12
2019-01-14T12:59:34.977Z,99141.02
2019-01-14T13:04:38.458Z,99123.64
2019-01-14T13:09:41.937Z,99115.61
2019-01-14T13:14:45.414Z,99116.42
2019-01-14T13:19:48.893Z,99101.70
2019-01-14T13:24:52.386Z,99096.73
2019-01-14T13:29:55.865Z,99100.18
2019-01-14T13:34:59.336Z,99129.59
2019-01-14T13:40:03.722Z,99142.22
2019-01-14T13:45:16.265Z,99151.91
2019-01-14T13:50:25.446Z,99164.08
2019-01-14T13:55:28.923Z,99151.62
2019-01-14T14:00:32.388Z,99167.80
2019-01-14T14:05:35.848Z,99188.55
2019-01-14T14:10:39.309Z,99187.95
2019-01-14T14:15:42.774Z,99202.75
2019-01-14T14:20:46.232Z,99208.45
2019-01-14T14:25:49.690Z,99232.48
2019-01-14T14:30:53.153Z,99251.08
2019-01-14T14:35:56.614Z,99267.44
2019-01-14T14:41:00.089Z,99266.39
2019-01-14T14:46:03.878Z,99266.28
2019-01-14T14:51:07.339Z,99263.31
2019-01-14T14:56:10.798Z,99266.05
2019-01-14T15:01:14.259Z,99264.28
2019-01-14T15:06:17.720Z,99270.17
2019-01-14T15:11:21.177Z,99296.83
2019-01-14T15:16:24.641Z,99310.39
2019-01-14T15:21:28.101Z,99317.67
2019-01-14T15:26:31.584Z,99320.95
2019-01-14T15:31:35.041Z,99317.64
2019-01-14T15:36:38.501Z,99342.45
2019-01-14T15:41:41.961Z,99355.79
2019-01-14T15:46:45.423Z,99361.83
2019-01-14T15:51:48.898Z,99377.06
2019-01-14T15:56:52.363Z,99381.69
2019-01-14T16:01:55.822Z,99399.00
2019-01-14T16:06:59.287Z,99401.28
2019-01-14T16:12:02.749Z,99421.60
2019-01-14T16:17:06.219Z,99431.91
2019-01-14T16:22:09.676Z,99434.42
2019-01-14T16:27:13.133Z,99450.45
2019-01-14T16:32:16.599Z,99459.54
2019-01-14T16:37:20.299Z,99472.97
2019-01-14T16:42:23.807Z,99479.11
2019-01-14T16:47:27.271Z,99480.50
2019-01-14T16:52:30.738Z,99481.70
2019-01-14T16:57:34.202Z,99488.46
2019-01-14T17:02:37.674Z,99504.56
2019-01-14T17:07:41.144Z,99510.10
2019-01-14T17:12:44.611Z,99518.59
2019-01-14T17:17:48.086Z,99530.45
2019-01-14T17:22:51.556Z,99545.52
2019-01-14T17:27:55.024Z,99550.03
2019-01-14T17:32:58.493Z,99563.89
2019-01-14T17:38:01.959Z,99572.38
2019-01-14T17:43:05.426Z,99583.28
2019-01-14T17:48:08.892Z,99587.45
2019-01-14T17:53:12.472Z,99593.34
2019-01-14T17:58:15.938Z,99605.20
2019-01-14T18:03:19.409Z,99611.53
2019-01-14T18:08:22.878Z,99622.02
2019-01-14T18:13:26.343Z,99628.16
2019-01-14T18:18:29.812Z,99635.27
2019-01-14T18:23:33.278Z,99640.95
2019-01-14T18:28:36.742Z,99647.89
2019-01-14T18:33:40.210Z,99656.98
2019-01-14T18:38:43.682Z,99663.30
2019-01-14T18:43:47.143Z,99668.06
2019-01-14T18:48:50.611Z,99673.79
2019-01-14T18:53:54.075Z,99686.87
2019-01-14T18:58:57.543Z,99691.98
2019-01-14T19:04:01.014Z,99714.34
2019-01-14T19:09:08.254Z,99707.83
2019-01-14T19:14:11.719Z,99726.20
2019-01-14T19:19:15.187Z,99728.38
2019-01-14T19:24:18.663Z,99731.92
2019-01-14T19:29:22.124Z,99736.09
2019-01-14T19:34:25.593Z,99732.11
2019-01-14T19:39:29.055Z,99741.02
2019-01-14T19:44:32.518Z,99752.20
2019-01-14T19:49:35.988Z,99756.83
2019-01-14T19:54:39.450Z,99756.83
2019-01-14T19:59:42.915Z,99764.96
2019-01-14T20:04:46.387Z,99768.61
2019-01-14T20:09:49.848Z,99779.09
2019-01-14T20:14:53.316Z,99779.52
2019-01-14T20:19:56.779Z,99787.63
2019-01-14T20:25:00.248Z,99792.21
2019-01-14T20:30:05.590Z,99804.33
2019-01-14T20:35:09.061Z,99804.59
2019-01-14T20:40:15.061Z,99810.39
2019-01-14T20:45:18.527Z,99818.52
2019-01-14T20:50:22.322Z,99822.34
2019-01-14T20:55:25.783Z,99831.50
2019-01-14T21:00:29.244Z,99832.11
2019-01-14T21:05:32.704Z,99832.34
2019-01-14T21:10:36.167Z,99824.64
2019-01-14T21:15:39.636Z,99826.80
2019-01-14T21:20:43.093Z,99835.39
2019-01-14T21:25:46.559Z,99842.32
2019-01-14T21:30:50.025Z,99845.27
2019-01-14T21:35:53.484Z,99851.41
2019-01-14T21:40:56.941Z,99847.86
2019-01-14T21:46:00.401Z,99853.22
2019-01-14T21:51:04.036Z,99846.53
2019-01-14T21:56:08.340Z,99855.63
2019-01-14T22:01:11.806Z,99849.91
2019-01-14T22:06:15.273Z,99848.34
2019-01-14T22:11:18.730Z,99850.95
2019-01-14T22:16:22.190Z,99843.40
2019-01-14T22:21:25.655Z,99839.52
2019-01-14T22:26:29.117Z,99838.91
2019-01-14T22:31:32.601Z,99829.81
2019-01-14T22:36:36.062Z,99844.27
2019-01-14T22:41:45.756Z,99844.69
2019-01-14T22:46:44.713Z,99850.83
2019-01-14T22:51:48.176Z,99854.98
2019-01-14T22:56:51.645Z,99858.36
2019-01-14T23:01:55.324Z,99861.13
2019-01-14T23:06:58.736Z,99863.13
2019-01-14T23:12:02.192Z,99865.11
2019-01-14T23:17:05.719Z,99859.41
2019-01-14T23:22:09.187Z,99866.34
2019-01-14T23:27:12.649Z,99862.78
2019-01-14T23:32:16.109Z,99868.14
2019-01-14T23:37:19.571Z,99866.77
2019-01-14T23:42:23.102Z,99863.98
2019-01-14T23:47:26.567Z,99863.98
2019-01-14T23:52:30.024Z,99861.64
2019-01-14T23:57:33.490Z,99864.41
